Stations météo

réclame
Mon MeteoGroup
Tarfala, Suède (2029): Température de l'air & dewpoint: 09.11.2018 22:00:00 - 15.11.2018 22:00:00 (CET)Tarfala, Suède (2029): Vitesse du vent & gusts: 09.11.2018 22:00:00 - 15.11.2018 22:00:00 (CET)Tarfala, Suède (2029): Direction du vent: 09.11.2018 22:00:00 - 15.11.2018 22:00:00 (CET)
Date & Time tt [°C] td [°C] ff [km/h] ff [knt] fx [km/h] fx [knt] dd
15.11.2018 22:00:00 - - - - - - -
15.11.2018 21:00:00 3,4 -3,0 50 27 129 69 N
15.11.2018 20:00:00 3,4 -2,1 46 25 106 58 NNW
15.11.2018 19:00:00 3,6 -1,4 34 18 100 54 N
15.11.2018 18:00:00 3,4 0,3 24 13 74 40 N
15.11.2018 17:00:00 3,9 0,8 16 9 71 38 NE
15.11.2018 16:00:00 3,3 0,4 17 9 68 37 N
15.11.2018 15:00:00 3,3 0,9 27 14 78 42 N
15.11.2018 14:00:00 3,0 -0,5 21 12 78 42 NW
15.11.2018 13:00:00 2,1 -0,7 26 14 65 35 NW
15.11.2018 12:00:00 0,7 -0,9 24 13 82 44 NNW
15.11.2018 11:00:00 0,4 -0,7 29 15 82 44 N
15.11.2018 10:00:00 1,8 -1,1 29 16 61 33 NNW
15.11.2018 09:00:00 2,6 -1,2 11 6 44 24 SE
15.11.2018 08:00:00 1,9 -1,7 19 11 44 24 NNW
15.11.2018 07:00:00 0,8 -1,6 11 6 31 17 NW
15.11.2018 06:00:00 0,5 -1,7 9 5 45 25 W
15.11.2018 05:00:00 0,6 -1,3 11 6 58 31 ESE
15.11.2018 04:00:00 1,0 -1,7 24 13 58 31 S
15.11.2018 03:00:00 2,1 -1,9 28 15 48 26 S
15.11.2018 02:00:00 0,0 -1,4 19 10 44 24 N
15.11.2018 01:00:00 0,2 -1,4 20 11 44 24 NNW
15.11.2018 00:00:00 1,1 -2,7 18 10 41 22 SSW
14.11.2018 23:00:00 -2,1 -3,2 22 12 30 16 SE
14.11.2018 22:00:00 -1,6 -3,3 17 9 25 13 SSE
14.11.2018 21:00:00 -1,0 -3,4 13 7 19 10 SSE
14.11.2018 20:00:00 -1,1 -3,8 8 4 28 15 SSE
14.11.2018 19:00:00 -0,2 -3,6 9 5 28 15 SE
14.11.2018 18:00:00 2,2 -3,1 16 9 29 16 S
14.11.2018 17:00:00 -0,3 -3,3 5 3 29 16 S
14.11.2018 16:00:00 -0,2 -3,1 9 5 33 18 SE
14.11.2018 15:00:00 1,9 -2,6 13 7 33 18 S
14.11.2018 14:00:00 1,3 -3,0 7 4 31 17 E
14.11.2018 13:00:00 1,4 -3,3 15 8 38 21 WNW
14.11.2018 12:00:00 1,2 -2,6 18 10 38 21 WNW
14.11.2018 11:00:00 1,1 -3,2 18 10 36 19 WNW
14.11.2018 10:00:00 1,0 -1,9 16 9 30 16 N
14.11.2018 09:00:00 -0,3 -2,8 4 2 14 8 NE
14.11.2018 08:00:00 -1,2 -3,1 4 2 18 10 S
14.11.2018 07:00:00 -0,9 -4,3 9 5 20 11 N
14.11.2018 06:00:00 -1,9 -4,4 7 4 27 15 SSE
14.11.2018 05:00:00 0,2 -4,3 7 4 - - NNW
14.11.2018 04:00:00 0,2 -4,8 14 8 - - NNE
14.11.2018 03:00:00 -0,8 -4,5 20 11 34 18 NW
14.11.2018 02:00:00 -0,7 -4,4 22 12 33 18 WNW
14.11.2018 01:00:00 -3,8 -5,3 6 4 17 9 NNW
14.11.2018 00:00:00 -3,6 -5,4 4 2 20 11 NNW
13.11.2018 23:00:00 -2,7 -4,6 13 7 21 11 N
13.11.2018 22:00:00 -1,3 -3,2 2 1 21 11 S
13.11.2018 21:00:00 0,2 -1,9 6 4 18 10 N
13.11.2018 20:00:00 -0,5 -1,6 4 2 23 12 E
13.11.2018 19:00:00 -0,2 -2,1 3 2 23 12 NW
13.11.2018 18:00:00 0,0 -2,1 6 3 15 8 N
13.11.2018 17:00:00 -0,2 -2,4 7 4 15 8 NNW
13.11.2018 16:00:00 -0,5 -2,7 11 6 15 8 NNW
13.11.2018 15:00:00 -1,6 -3,6 4 2 10 5 WNW
13.11.2018 14:00:00 -0,6 -3,1 4 2 8 4 NNE
13.11.2018 13:00:00 0,0 -2,2 4 2 13 7 NNW
13.11.2018 12:00:00 -1,4 -2,8 2 1 13 7 N
13.11.2018 11:00:00 -1,5 -2,8 4 2 12 7 NW
13.11.2018 10:00:00 -1,4 -2,5 4 2 11 6 N
13.11.2018 09:00:00 -2,2 -3,0 7 4 11 6 NNW
13.11.2018 08:00:00 -2,7 -3,4 5 3 10 6 N
13.11.2018 07:00:00 -2,9 -3,6 7 4 10 6 NNW
13.11.2018 06:00:00 -2,4 -3,1 6 4 11 6 SSE
13.11.2018 05:00:00 -2,2 -2,6 5 3 11 6 N
13.11.2018 04:00:00 -2,4 -3,0 2 1 10 6 NW
13.11.2018 03:00:00 -2,3 -2,7 5 3 10 6 NNW
13.11.2018 02:00:00 -2,2 -2,8 5 3 11 6 N
13.11.2018 01:00:00 -2,7 -3,2 3 2 11 6 E
13.11.2018 00:00:00 -3,1 -3,5 4 2 9 5 E
12.11.2018 23:00:00 -3,2 -3,7 4 2 8 4 W
12.11.2018 22:00:00 -3,4 -3,9 3 2 7 4 NNW
12.11.2018 21:00:00 -3,3 -3,8 2 1 7 4 NNE
12.11.2018 20:00:00 -2,9 -3,4 4 2 5 3 N
12.11.2018 19:00:00 -2,4 -2,8 3 1 14 7 N
12.11.2018 18:00:00 -2,2 -2,6 4 2 14 7 ESE
12.11.2018 17:00:00 -2,2 -2,6 9 5 13 7 SE
12.11.2018 16:00:00 -2,2 -2,6 0 0 16 9 N
12.11.2018 15:00:00 -2,1 -2,5 0 0 16 9 N
12.11.2018 14:00:00 -1,9 -2,3 8 4 21 11 SE
12.11.2018 13:00:00 -1,9 -2,3 3 2 21 11 ENE
12.11.2018 12:00:00 -1,7 -2,1 2 1 16 9 S
12.11.2018 11:00:00 -1,8 -2,2 7 4 16 9 SSE
12.11.2018 10:00:00 -2,3 -2,7 5 3 7 4 NNW
12.11.2018 09:00:00 -2,4 -2,8 4 2 11 6 WNW
12.11.2018 08:00:00 -2,3 -2,7 3 2 12 7 NNE
12.11.2018 07:00:00 -2,5 -2,9 8 5 12 7 NNW
12.11.2018 06:00:00 -2,2 -2,6 2 1 11 6 SW
12.11.2018 05:00:00 -2,0 -2,4 0 0 11 6 N
12.11.2018 04:00:00 -2,0 -2,3 7 4 12 6 ESE
12.11.2018 03:00:00 -2,6 -3,0 8 4 11 6 NNW
12.11.2018 02:00:00 -3,0 -3,5 6 3 9 5 NNW
12.11.2018 01:00:00 -2,6 -3,0 3 2 9 5 NNE
12.11.2018 00:00:00 -2,7 -3,2 5 3 12 6 NNW
11.11.2018 23:00:00 -2,8 -3,2 2 1 15 8 ESE
11.11.2018 22:00:00 -2,7 -3,1 3 2 18 10 SSE
11.11.2018 21:00:00 -2,7 -3,1 10 5 19 11 SSE
11.11.2018 20:00:00 -2,9 -3,3 11 6 19 11 SSE
11.11.2018 19:00:00 -2,9 -3,3 6 3 11 6 SSE
11.11.2018 18:00:00 -3,0 -3,4 4 2 18 10 SSW
11.11.2018 17:00:00 -3,1 -3,6 6 3 18 10 SE
11.11.2018 16:00:00 -3,1 -3,5 3 2 12 7 SSE
11.11.2018 15:00:00 -3,0 -3,4 8 4 37 20 SSE
11.11.2018 14:00:00 -2,6 -3,0 6 3 37 20 SSW
11.11.2018 13:00:00 0,2 -1,2 16 9 29 15 SE
11.11.2018 12:00:00 -1,2 -1,6 6 4 13 7 S
11.11.2018 11:00:00 -2,2 -2,8 4 2 13 7 NNW
11.11.2018 10:00:00 -2,5 -3,0 4 2 16 9 N
11.11.2018 09:00:00 -3,0 -3,5 9 5 16 9 S
11.11.2018 08:00:00 -3,0 -3,5 9 5 13 7 SE
11.11.2018 07:00:00 -3,4 -3,9 5 3 13 7 NNW
11.11.2018 06:00:00 -3,4 -4,1 6 3 13 7 N
11.11.2018 05:00:00 - - - - 13 7 -
11.11.2018 04:00:00 -3,9 -4,4 3 2 13 7 N
11.11.2018 03:00:00 -3,9 -4,4 5 3 13 7 WNW
11.11.2018 02:00:00 -3,9 -4,4 6 3 19 11 W
11.11.2018 01:00:00 -3,9 -4,4 3 1 19 11 NNE
11.11.2018 00:00:00 -3,6 -4,1 13 7 16 9 ESE
10.11.2018 23:00:00 -3,6 -4,1 5 3 14 8 NW
10.11.2018 22:00:00 -3,6 -4,1 6 3 19 10 S
10.11.2018 21:00:00 -3,4 -3,9 6 4 19 10 NNE
10.11.2018 20:00:00 -3,4 -3,9 6 3 19 11 SSE
10.11.2018 19:00:00 -3,3 -3,8 6 3 29 16 SE
10.11.2018 18:00:00 -3,3 -3,8 16 9 36 20 ESE
10.11.2018 17:00:00 -3,2 -3,7 13 7 42 23 S
10.11.2018 16:00:00 -3,1 -3,6 26 14 42 23 SSE
10.11.2018 15:00:00 -3,1 -3,6 29 16 34 19 SSE
10.11.2018 14:00:00 -3,0 -3,5 23 12 29 15 SE
10.11.2018 13:00:00 -2,9 -3,3 9 5 20 11 SE
10.11.2018 12:00:00 -2,6 -3,0 10 6 20 11 SSE
10.11.2018 11:00:00 -2,2 -2,6 11 6 17 9 S
10.11.2018 10:00:00 -2,3 -2,7 6 3 10 6 SE
10.11.2018 09:00:00 -2,2 -2,6 3 2 16 8 SE
10.11.2018 08:00:00 -2,1 -2,5 9 5 16 8 SE
10.11.2018 07:00:00 -2,2 -2,6 2 1 13 7 SE
10.11.2018 06:00:00 -1,7 -2,1 5 3 8 4 SE
10.11.2018 05:00:00 -1,9 -2,3 3 2 9 5 W
10.11.2018 04:00:00 -1,6 -1,9 3 2 9 5 N
10.11.2018 03:00:00 -1,2 -1,5 5 3 10 5 NNW
10.11.2018 02:00:00 -1,3 -1,6 4 2 10 5 N
10.11.2018 01:00:00 - - - - 5 3 -
10.11.2018 00:00:00 -1,5 -1,8 0 0 6 4 N
09.11.2018 23:00:00 - - - - 7 4 -
09.11.2018 22:00:00 -1,1 -1,4 2 1 10 5 SE

tt = Température de l'air
td = dewpoint
ff = Vitesse du vent
fx = gusts
dd = Direction du vent

stations d'obs. à proximité